createdAt,value
2023-04-30T00:02:04.828Z,5.29
2023-04-30T00:04:37.432Z,5.09
2023-04-30T00:07:41.147Z,4.98
2023-04-30T00:10:10.832Z,4.74
2023-04-30T00:12:43.238Z,4.83
2023-04-30T00:15:28.185Z,4.71
2023-04-30T00:18:05.505Z,4.71
2023-04-30T00:20:32.452Z,4.77
2023-04-30T00:26:18.471Z,4.79
2023-04-30T00:28:47.314Z,4.78
2023-04-30T00:31:16.907Z,4.64
2023-04-30T00:33:44.384Z,4.83
2023-04-30T00:36:18.169Z,4.98
2023-04-30T00:38:45.740Z,5.13
2023-04-30T00:44:09.551Z,5.29
2023-04-30T00:46:42.208Z,5.41
2023-04-30T00:49:21.536Z,5.45
2023-04-30T00:55:37.574Z,5.44
2023-04-30T01:02:10.758Z,5.64
2023-04-30T01:04:37.234Z,5.51
2023-04-30T01:07:03.956Z,5.66
2023-04-30T01:09:41.103Z,5.69
2023-04-30T01:12:26.190Z,5.67
2023-04-30T01:15:22.877Z,5.42
2023-04-30T01:18:07.940Z,5.32
2023-04-30T01:20:45.995Z,5.21
2023-04-30T01:23:36.962Z,5.12
2023-04-30T01:29:53.337Z,4.60
2023-04-30T01:32:26.222Z,4.53
2023-04-30T01:39:02.015Z,4.39
2023-04-30T01:41:43.741Z,4.31
2023-04-30T01:44:53.630Z,4.39
2023-04-30T01:47:44.898Z,4.38
2023-04-30T01:50:51.520Z,4.44
2023-04-30T01:53:36.358Z,4.32
2023-04-30T01:56:04.361Z,4.30
2023-04-30T01:58:38.285Z,4.27
2023-04-30T02:01:08.913Z,4.13
2023-04-30T02:03:35.623Z,4.13
2023-04-30T02:06:07.796Z,4.18
2023-04-30T02:08:34.366Z,4.12
2023-04-30T02:11:02.220Z,4.08
2023-04-30T02:13:30.023Z,4.03
2023-04-30T02:15:59.289Z,4.11
2023-04-30T02:18:27.077Z,4.07
2023-04-30T02:20:55.211Z,4.10
2023-04-30T02:23:21.720Z,4.05
2023-04-30T02:26:00.773Z,3.98
2023-04-30T02:28:28.356Z,3.90
2023-04-30T02:34:51.075Z,3.87
2023-04-30T02:41:22.418Z,3.93
2023-04-30T02:47:48.637Z,3.87
2023-04-30T03:12:29.173Z,3.59
2023-04-30T03:18:55.415Z,3.50
2023-04-30T03:21:39.012Z,3.52
2023-04-30T03:24:07.168Z,3.50
2023-04-30T03:26:51.412Z,3.55
2023-04-30T03:37:34.709Z,3.55
2023-04-30T03:40:02.271Z,3.54
2023-04-30T03:56:36.404Z,3.36
2023-04-30T04:02:54.677Z,3.37
2023-04-30T04:08:12.476Z,3.33
2023-04-30T04:10:42.080Z,3.39
2023-04-30T04:13:17.905Z,3.42
2023-04-30T04:25:18.604Z,3.75
2023-04-30T04:27:54.526Z,3.98
2023-04-30T04:41:43.578Z,4.90
2023-04-30T05:00:17.249Z,5.77
2023-04-30T05:14:01.532Z,6.25
2023-04-30T05:23:58.861Z,6.47
2023-04-30T05:26:43.569Z,6.66
2023-04-30T05:29:13.502Z,6.79
2023-04-30T05:42:48.368Z,7.17
2023-04-30T05:51:21.093Z,6.97
2023-04-30T06:16:34.939Z,7.98
2023-04-30T06:19:23.462Z,7.90
2023-04-30T06:22:00.490Z,8.12
2023-04-30T06:28:17.217Z,7.72
2023-04-30T06:34:41.450Z,8.21
2023-04-30T06:51:15.353Z,7.80
2023-04-30T06:53:41.783Z,7.90
2023-04-30T06:56:08.216Z,7.79
2023-04-30T06:58:34.644Z,7.86
2023-04-30T07:01:01.395Z,8.12
2023-04-30T07:03:28.318Z,7.95
2023-04-30T07:05:54.992Z,8.09
2023-04-30T07:08:22.241Z,8.32
2023-04-30T07:10:48.719Z,8.13
2023-04-30T07:13:16.491Z,8.40
2023-04-30T07:15:43.021Z,8.41
2023-04-30T07:18:10.015Z,8.71
2023-04-30T07:20:36.696Z,8.64
2023-04-30T07:23:03.412Z,8.63
2023-04-30T07:25:29.932Z,8.30
2023-04-30T07:27:56.425Z,8.34
2023-04-30T07:30:24.893Z,8.37
2023-04-30T07:32:51.795Z,8.59
2023-04-30T07:35:19.274Z,8.90
2023-04-30T07:37:45.834Z,9.38
2023-04-30T07:40:15.311Z,9.54
2023-04-30T07:42:45.092Z,9.28
2023-04-30T07:45:13.024Z,9.63
2023-04-30T07:47:39.577Z,10.01
2023-04-30T07:50:06.541Z,9.90
2023-04-30T07:52:33.011Z,10.11
2023-04-30T07:54:59.491Z,10.06
2023-04-30T07:57:27.030Z,9.60
2023-04-30T07:59:54.185Z,9.55
2023-04-30T08:02:21.245Z,9.71
2023-04-30T08:04:48.103Z,10.01
2023-04-30T08:07:15.956Z,10.56
2023-04-30T08:09:42.424Z,9.91
2023-04-30T08:12:09.629Z,9.92
2023-04-30T08:14:36.391Z,10.04
2023-04-30T08:17:03.346Z,10.45
2023-04-30T08:19:29.924Z,10.54
2023-04-30T08:21:56.432Z,10.59
2023-04-30T08:24:22.922Z,10.93
2023-04-30T08:26:49.415Z,11.21
2023-04-30T08:29:15.882Z,11.16
2023-04-30T08:31:42.369Z,11.22
2023-04-30T08:34:08.875Z,11.45
2023-04-30T08:36:35.881Z,11.25
2023-04-30T08:39:02.373Z,11.45
2023-04-30T08:41:33.613Z,11.28
2023-04-30T08:44:01.521Z,11.08
2023-04-30T08:46:29.237Z,10.59
2023-04-30T08:48:55.807Z,10.94
2023-04-30T08:51:22.315Z,11.07
2023-04-30T08:53:50.700Z,11.34
2023-04-30T08:56:17.525Z,11.35
2023-04-30T08:58:44.318Z,11.08
2023-04-30T09:01:11.147Z,11.70
2023-04-30T09:03:37.833Z,12.14
2023-04-30T09:06:04.493Z,12.10
2023-04-30T09:08:49.940Z,11.76
2023-04-30T09:11:32.206Z,11.44
2023-04-30T09:13:59.425Z,11.82
2023-04-30T09:16:27.498Z,11.74
2023-04-30T09:18:54.308Z,11.65
2023-04-30T09:21:34.060Z,11.99
2023-04-30T09:24:01.905Z,11.62
2023-04-30T09:26:33.119Z,12.19
2023-04-30T09:28:59.826Z,12.44
2023-04-30T09:31:27.914Z,12.88
2023-04-30T09:33:54.435Z,12.98
2023-04-30T09:36:20.928Z,12.84
2023-04-30T09:38:47.431Z,12.41
2023-04-30T09:41:27.340Z,12.73
2023-04-30T09:43:56.945Z,12.73
2023-04-30T09:46:31.046Z,13.29
2023-04-30T09:49:01.639Z,13.49
2023-04-30T09:51:28.758Z,13.53
2023-04-30T09:53:56.052Z,13.03
2023-04-30T09:56:26.704Z,13.29
2023-04-30T09:58:56.859Z,14.00
2023-04-30T10:01:27.076Z,14.23
2023-04-30T10:03:53.531Z,14.23
2023-04-30T10:06:23.269Z,14.42
2023-04-30T10:08:53.417Z,13.14
2023-04-30T10:11:21.444Z,13.78
2023-04-30T10:13:53.570Z,13.92
2023-04-30T10:16:32.819Z,14.56
2023-04-30T10:19:00.262Z,14.59
2023-04-30T10:21:27.234Z,14.59
2023-04-30T10:23:54.718Z,14.78
2023-04-30T10:26:21.201Z,14.74
2023-04-30T10:28:47.704Z,13.78
2023-04-30T10:31:14.269Z,14.18
2023-04-30T10:34:07.009Z,14.24
2023-04-30T10:36:40.913Z,14.05
2023-04-30T10:39:07.393Z,14.93
2023-04-30T10:41:33.889Z,15.16
2023-04-30T10:44:02.253Z,15.40
2023-04-30T10:46:29.051Z,15.32
2023-04-30T10:48:55.704Z,14.33
2023-04-30T10:51:22.530Z,14.38
2023-04-30T10:53:52.968Z,14.51
2023-04-30T10:56:32.135Z,14.67
2023-04-30T10:59:00.140Z,14.37
2023-04-30T11:01:26.995Z,15.06
2023-04-30T11:04:10.036Z,14.87
2023-04-30T11:06:52.181Z,15.11
2023-04-30T11:09:18.752Z,15.08
2023-04-30T11:11:45.751Z,15.55
2023-04-30T11:14:12.303Z,15.02
2023-04-30T11:16:38.920Z,15.38
2023-04-30T11:19:15.292Z,15.20
2023-04-30T11:21:42.499Z,14.97
2023-04-30T11:24:08.998Z,14.24
2023-04-30T11:27:05.458Z,14.99
2023-04-30T11:29:32.032Z,14.76
2023-04-30T11:32:00.979Z,15.58
2023-04-30T11:34:27.483Z,15.64
2023-04-30T11:36:55.359Z,15.19
2023-04-30T11:39:22.438Z,15.68
2023-04-30T11:41:48.928Z,15.75
2023-04-30T11:44:27.776Z,15.43
2023-04-30T11:46:54.606Z,15.26
2023-04-30T11:49:21.152Z,15.44
2023-04-30T11:51:50.925Z,15.58
2023-04-30T11:54:18.521Z,15.99
2023-04-30T11:56:48.614Z,15.65
2023-04-30T11:59:15.301Z,15.12
2023-04-30T12:01:42.393Z,16.02
2023-04-30T12:04:09.127Z,16.02
2023-04-30T12:06:35.879Z,15.98
2023-04-30T12:09:04.811Z,16.12
2023-04-30T12:11:31.665Z,15.50
2023-04-30T12:14:03.362Z,15.61
2023-04-30T12:16:50.285Z,15.96
2023-04-30T12:19:17.689Z,15.85
2023-04-30T12:21:46.275Z,15.66
2023-04-30T12:24:19.339Z,16.31
2023-04-30T12:26:45.895Z,16.33
2023-04-30T12:29:16.562Z,16.56
2023-04-30T12:31:43.177Z,16.19
2023-04-30T12:34:11.791Z,16.38
2023-04-30T12:36:39.052Z,16.76
2023-04-30T12:39:05.649Z,16.64
2023-04-30T12:41:32.858Z,17.03
2023-04-30T12:44:20.796Z,17.21
2023-04-30T12:46:51.374Z,16.16
2023-04-30T12:49:30.580Z,16.44
2023-04-30T12:52:04.744Z,16.04
2023-04-30T12:54:32.468Z,16.04
2023-04-30T12:57:03.489Z,16.09
2023-04-30T12:59:33.451Z,16.46
2023-04-30T13:02:13.392Z,16.65
2023-04-30T13:04:40.811Z,16.98
2023-04-30T13:07:07.443Z,16.67
2023-04-30T13:09:34.346Z,16.47
2023-04-30T13:12:01.173Z,16.33
2023-04-30T13:14:27.733Z,15.84
2023-04-30T13:16:54.599Z,16.22
2023-04-30T13:19:21.263Z,16.78
2023-04-30T13:21:47.726Z,16.51
2023-04-30T13:24:14.215Z,17.05
2023-04-30T13:26:40.690Z,17.01
2023-04-30T13:29:07.423Z,17.48
2023-04-30T13:31:34.030Z,16.58
2023-04-30T13:34:00.853Z,16.83
2023-04-30T13:36:27.350Z,16.54
2023-04-30T13:38:54.070Z,16.93
2023-04-30T13:41:22.031Z,16.79
2023-04-30T13:43:49.129Z,17.68
2023-04-30T13:46:16.614Z,17.40
2023-04-30T13:48:43.198Z,17.82
2023-04-30T13:51:09.695Z,17.68
2023-04-30T13:53:37.284Z,18.16
2023-04-30T13:56:03.894Z,17.03
2023-04-30T13:58:30.377Z,16.96
2023-04-30T14:00:56.882Z,17.46
2023-04-30T14:03:23.444Z,18.42
2023-04-30T14:05:50.063Z,17.89
2023-04-30T14:08:16.546Z,18.07
2023-04-30T14:10:43.077Z,17.47
2023-04-30T14:13:09.820Z,18.08
2023-04-30T14:15:36.284Z,18.00
2023-04-30T14:18:02.838Z,17.42
2023-04-30T14:20:29.451Z,17.27
2023-04-30T14:22:56.085Z,17.83
2023-04-30T14:25:22.544Z,18.34
2023-04-30T14:27:49.008Z,18.50
2023-04-30T14:30:15.633Z,17.82
2023-04-30T14:32:42.136Z,17.65
2023-04-30T14:35:09.656Z,17.61
2023-04-30T14:37:36.144Z,17.48
2023-04-30T14:40:02.978Z,16.61
2023-04-30T14:42:29.501Z,16.04
2023-04-30T14:44:56.233Z,16.15
2023-04-30T14:47:27.107Z,16.33
2023-04-30T14:49:54.001Z,16.36
2023-04-30T14:52:20.639Z,15.95
2023-04-30T14:54:47.114Z,16.26
2023-04-30T14:57:14.260Z,16.56
2023-04-30T14:59:41.775Z,15.97
2023-04-30T15:02:09.095Z,15.83
2023-04-30T15:04:35.616Z,16.04
2023-04-30T15:07:02.508Z,16.10
2023-04-30T15:09:29.045Z,16.06
2023-04-30T15:11:55.938Z,16.21
2023-04-30T15:14:22.475Z,16.26
2023-04-30T15:16:48.938Z,15.86
2023-04-30T15:19:15.461Z,15.81
2023-04-30T15:21:42.041Z,15.81
2023-04-30T15:24:08.948Z,15.54
2023-04-30T15:26:35.410Z,15.35
2023-04-30T15:29:01.869Z,15.38
2023-04-30T15:31:28.395Z,15.04
2023-04-30T15:33:54.917Z,15.08
2023-04-30T15:36:23.248Z,15.06
2023-04-30T15:38:49.746Z,14.85
2023-04-30T15:41:16.206Z,15.11
2023-04-30T15:43:42.680Z,15.41
2023-04-30T15:46:09.289Z,15.79
2023-04-30T15:48:35.793Z,15.93
2023-04-30T15:51:02.323Z,15.93
2023-04-30T15:53:28.788Z,16.09
2023-04-30T15:55:57.009Z,16.03
2023-04-30T15:58:23.790Z,16.20
2023-04-30T16:00:50.398Z,16.23
2023-04-30T16:03:16.983Z,16.35
2023-04-30T16:05:43.900Z,16.14
2023-04-30T16:08:10.551Z,15.64
2023-04-30T16:10:37.370Z,15.46
2023-04-30T16:13:03.858Z,15.40
2023-04-30T16:15:30.442Z,15.44
2023-04-30T16:17:57.259Z,15.39
2023-04-30T16:20:24.051Z,14.83
2023-04-30T16:22:50.602Z,14.72
2023-04-30T16:25:17.190Z,14.71
2023-04-30T16:27:44.140Z,14.72
2023-04-30T16:30:11.203Z,14.36
2023-04-30T16:32:37.725Z,14.36
2023-04-30T16:35:04.397Z,14.32
2023-04-30T16:37:31.098Z,14.24
2023-04-30T16:39:57.812Z,14.29
2023-04-30T16:42:24.667Z,14.09
2023-04-30T16:44:51.208Z,14.09
2023-04-30T16:47:18.687Z,13.85
2023-04-30T16:49:45.183Z,13.78
2023-04-30T16:52:12.151Z,13.94
2023-04-30T16:54:38.890Z,13.77
2023-04-30T16:57:05.406Z,13.64
2023-04-30T16:59:31.910Z,13.45
2023-04-30T17:02:00.506Z,13.59
2023-04-30T17:04:27.239Z,13.35
2023-04-30T17:06:53.897Z,13.26
2023-04-30T17:09:20.389Z,13.21
2023-04-30T17:11:47.035Z,13.19
2023-04-30T17:14:13.527Z,13.13
2023-04-30T17:16:39.993Z,13.02
2023-04-30T17:19:07.654Z,13.03
2023-04-30T17:21:34.283Z,12.97
2023-04-30T17:24:01.637Z,12.81
2023-04-30T17:26:28.143Z,12.79
2023-04-30T17:28:54.619Z,12.76
2023-04-30T17:31:21.102Z,12.63
2023-04-30T17:33:47.644Z,12.52
2023-04-30T17:36:14.193Z,12.41
2023-04-30T17:38:40.694Z,12.34
2023-04-30T17:41:07.240Z,12.17
2023-04-30T17:43:33.708Z,11.86
2023-04-30T17:46:00.252Z,11.44
2023-04-30T17:48:27.269Z,11.15
2023-04-30T17:50:54.311Z,10.95
2023-04-30T17:53:20.905Z,10.92
2023-04-30T17:55:47.382Z,10.92
2023-04-30T17:58:14.011Z,10.81
2023-04-30T18:00:40.971Z,10.77
2023-04-30T18:03:08.182Z,10.66
2023-04-30T18:05:35.814Z,10.68
2023-04-30T18:08:02.530Z,10.36
2023-04-30T18:10:29.010Z,10.33
2023-04-30T18:13:00.763Z,10.00
2023-04-30T18:15:27.418Z,9.86
2023-04-30T18:17:54.215Z,9.87
2023-04-30T18:20:23.716Z,9.67
2023-04-30T18:22:50.233Z,9.46
2023-04-30T18:25:17.370Z,9.41
2023-04-30T18:27:44.047Z,9.43
2023-04-30T18:30:11.494Z,9.32
2023-04-30T18:32:38.067Z,9.38
2023-04-30T18:35:04.816Z,9.36
2023-04-30T18:37:31.874Z,9.33
2023-04-30T18:39:58.501Z,9.41
2023-04-30T18:42:25.013Z,9.62
2023-04-30T18:44:51.529Z,9.40
2023-04-30T18:47:18.008Z,9.28
2023-04-30T18:49:45.084Z,9.24
2023-04-30T18:52:11.592Z,9.22
2023-04-30T18:54:38.072Z,9.23
2023-04-30T18:57:06.095Z,9.32
2023-04-30T18:59:33.255Z,9.33
2023-04-30T19:02:00.103Z,9.26
2023-04-30T19:04:27.492Z,9.32
2023-04-30T19:06:55.691Z,9.01
2023-04-30T19:09:22.504Z,8.79
2023-04-30T19:11:53.243Z,8.89
2023-04-30T19:14:19.878Z,9.03
2023-04-30T19:16:46.779Z,9.14
2023-04-30T19:19:16.775Z,8.91
2023-04-30T19:21:43.739Z,9.00
2023-04-30T19:24:10.275Z,8.81
2023-04-30T19:26:38.158Z,8.86
2023-04-30T19:29:04.722Z,8.53
2023-04-30T19:31:31.574Z,8.71
2023-04-30T19:33:59.406Z,8.66
2023-04-30T19:36:28.475Z,8.86
2023-04-30T19:38:56.216Z,9.04
2023-04-30T19:41:26.137Z,8.81
2023-04-30T19:43:53.603Z,8.63
2023-04-30T19:46:25.918Z,8.45
2023-04-30T19:48:54.571Z,8.44
2023-04-30T19:51:24.640Z,9.06
2023-04-30T19:53:52.283Z,9.18
2023-04-30T19:56:19.218Z,9.21
2023-04-30T19:58:47.429Z,9.18
2023-04-30T20:01:14.619Z,9.10
2023-04-30T20:03:42.089Z,9.12
2023-04-30T20:06:09.698Z,9.03
2023-04-30T20:08:36.450Z,8.91
2023-04-30T20:11:03.988Z,8.84
2023-04-30T20:13:30.613Z,8.73
2023-04-30T20:15:57.437Z,8.68
2023-04-30T20:18:24.006Z,8.64
2023-04-30T20:20:50.679Z,8.60
2023-04-30T20:23:17.716Z,8.63
2023-04-30T20:25:45.397Z,8.52
2023-04-30T20:28:13.023Z,8.63
2023-04-30T20:30:42.761Z,8.81
2023-04-30T20:33:10.172Z,8.45
2023-04-30T20:35:36.766Z,8.70
2023-04-30T20:38:03.250Z,8.46
2023-04-30T20:40:29.752Z,8.29
2023-04-30T20:42:56.217Z,8.35
2023-04-30T20:45:23.642Z,8.13
2023-04-30T20:47:50.286Z,8.42
2023-04-30T20:50:16.825Z,8.29
2023-04-30T20:52:43.716Z,8.34
2023-04-30T20:55:10.585Z,8.31
2023-04-30T20:57:37.082Z,8.22
2023-04-30T21:00:04.880Z,8.29
2023-04-30T21:02:31.464Z,8.24
2023-04-30T21:05:04.384Z,8.03
2023-04-30T21:07:37.283Z,8.17
2023-04-30T21:10:05.195Z,8.25
2023-04-30T21:12:31.657Z,8.07
2023-04-30T21:14:59.667Z,7.95
2023-04-30T21:17:26.324Z,7.93
2023-04-30T21:19:53.022Z,7.88
2023-04-30T21:22:19.996Z,7.72
2023-04-30T21:24:46.464Z,7.56
2023-04-30T21:27:12.934Z,7.44
2023-04-30T21:29:42.172Z,7.73
2023-04-30T21:32:08.646Z,7.76
2023-04-30T21:34:35.147Z,7.94
2023-04-30T21:37:01.701Z,8.08
2023-04-30T21:39:29.415Z,8.63
2023-04-30T21:41:55.864Z,8.58
2023-04-30T21:44:22.342Z,8.39
2023-04-30T21:46:49.187Z,8.37
2023-04-30T21:49:16.768Z,8.14
2023-04-30T21:51:43.227Z,8.21
2023-04-30T21:54:09.705Z,8.13
2023-04-30T21:56:36.493Z,8.08
2023-04-30T21:59:02.952Z,8.04
2023-04-30T22:01:30.108Z,7.72
2023-04-30T22:03:57.108Z,7.62
2023-04-30T22:06:23.691Z,7.52
2023-04-30T22:08:50.168Z,7.38
2023-04-30T22:11:19.132Z,7.64
2023-04-30T22:13:45.598Z,7.60
2023-04-30T22:16:12.307Z,7.66
2023-04-30T22:18:39.729Z,7.70
2023-04-30T22:21:06.609Z,7.74
2023-04-30T22:23:33.120Z,7.49
2023-04-30T22:26:00.105Z,7.42
2023-04-30T22:28:27.063Z,7.39
2023-04-30T22:30:59.768Z,7.20
2023-04-30T22:33:26.312Z,7.04
2023-04-30T22:35:53.109Z,6.80
2023-04-30T22:38:19.890Z,6.84
2023-04-30T22:40:46.441Z,6.85
2023-04-30T22:43:12.913Z,6.79
2023-04-30T22:45:40.526Z,6.95
2023-04-30T22:48:07.955Z,6.99
2023-04-30T22:50:34.971Z,6.65
2023-04-30T22:53:01.511Z,6.58
2023-04-30T22:55:28.313Z,6.38
2023-04-30T22:57:54.844Z,6.30
2023-04-30T23:00:21.325Z,6.49
2023-04-30T23:02:47.901Z,6.81
2023-04-30T23:05:14.533Z,6.95
2023-04-30T23:07:41.087Z,7.10
2023-04-30T23:10:07.800Z,7.22
2023-04-30T23:12:35.603Z,7.29
2023-04-30T23:15:02.157Z,7.34
2023-04-30T23:17:28.673Z,7.28
2023-04-30T23:19:55.284Z,7.26
2023-04-30T23:22:22.067Z,7.15
2023-04-30T23:24:48.573Z,7.17
2023-04-30T23:27:15.120Z,7.19
2023-04-30T23:29:42.888Z,7.23
2023-04-30T23:32:09.427Z,7.23
2023-04-30T23:34:35.971Z,7.04
2023-04-30T23:37:02.476Z,6.97
2023-04-30T23:39:29.159Z,7.01
2023-04-30T23:41:55.975Z,6.96
2023-04-30T23:44:22.442Z,6.87
2023-04-30T23:46:50.723Z,6.89
2023-04-30T23:49:18.223Z,6.89
2023-04-30T23:51:45.695Z,6.97
2023-04-30T23:54:12.228Z,7.08
2023-04-30T23:56:38.705Z,7.17
2023-04-30T23:59:05.188Z,7.29
